createdAt,value
2022-11-18T00:02:53.265Z,79.82
2022-11-18T00:07:55.814Z,79.46
2022-11-18T00:13:01.361Z,79.60
2022-11-18T00:18:03.903Z,79.79
2022-11-18T00:23:06.484Z,79.27
2022-11-18T00:28:09.026Z,78.96
2022-11-18T00:33:11.693Z,78.65
2022-11-18T00:38:14.242Z,78.75
2022-11-18T00:43:16.788Z,78.65
2022-11-18T00:48:21.659Z,78.87
2022-11-18T00:53:26.619Z,78.89
2022-11-18T00:58:30.054Z,79.17
2022-11-18T01:03:32.813Z,79.50
2022-11-18T01:08:35.456Z,78.87
2022-11-18T01:13:37.984Z,78.99
2022-11-18T01:18:40.576Z,79.16
2022-11-18T01:23:43.843Z,79.10
2022-11-18T01:28:48.840Z,79.08
2022-11-18T01:33:52.221Z,79.06
2022-11-18T01:38:55.488Z,79.02
2022-11-18T01:44:01.879Z,79.06
2022-11-18T01:49:09.178Z,79.39
2022-11-18T01:54:16.918Z,79.43
2022-11-18T01:59:26.458Z,79.32
2022-11-18T02:04:29.130Z,79.39
2022-11-18T02:09:39.123Z,79.36
2022-11-18T02:14:45.591Z,79.26
2022-11-18T02:19:48.252Z,79.60
2022-11-18T02:24:54.774Z,79.59
2022-11-18T02:30:08.636Z,79.74
2022-11-18T02:35:17.964Z,79.42
2022-11-18T02:40:28.051Z,79.51
2022-11-18T02:45:35.797Z,79.81
2022-11-18T02:50:42.003Z,80.23
2022-11-18T02:55:46.420Z,80.68
2022-11-18T03:00:54.122Z,80.99
2022-11-18T03:06:04.429Z,81.56
2022-11-18T03:11:14.465Z,81.81
2022-11-18T03:16:27.556Z,82.19
2022-11-18T03:21:39.272Z,82.33
2022-11-18T03:26:51.030Z,82.60
2022-11-18T03:32:00.978Z,82.67
2022-11-18T03:37:10.470Z,82.76
2022-11-18T03:42:24.769Z,82.99
2022-11-18T03:47:33.462Z,83.16
2022-11-18T03:52:37.492Z,82.98
2022-11-18T03:57:46.331Z,83.03
2022-11-18T04:02:50.436Z,83.25
2022-11-18T04:07:58.757Z,83.20
2022-11-18T04:13:06.675Z,82.95
2022-11-18T04:18:10.721Z,83.07
2022-11-18T04:23:13.266Z,82.87
2022-11-18T04:28:15.789Z,82.96
2022-11-18T04:33:18.309Z,82.93
2022-11-18T04:38:23.071Z,82.75
2022-11-18T04:43:25.614Z,82.51
2022-11-18T04:48:28.196Z,82.41
2022-11-18T04:53:30.792Z,82.42
2022-11-18T04:58:33.568Z,82.50
2022-11-18T05:03:36.108Z,82.33
2022-11-18T05:08:39.205Z,82.28
2022-11-18T05:13:41.735Z,82.08
2022-11-18T05:18:44.300Z,81.99
2022-11-18T05:23:46.847Z,81.96
2022-11-18T05:28:49.380Z,81.86
2022-11-18T05:33:51.988Z,82.27
2022-11-18T05:38:54.770Z,82.36
2022-11-18T05:43:58.021Z,80.23
2022-11-18T05:49:03.193Z,78.35
2022-11-18T05:54:09.046Z,77.18
2022-11-18T05:59:12.274Z,77.16
2022-11-18T06:04:25.393Z,77.28
2022-11-18T06:09:36.597Z,76.27
2022-11-18T06:14:44.438Z,76.59
2022-11-18T06:19:47.088Z,75.17
2022-11-18T06:24:49.728Z,74.59
2022-11-18T06:29:52.323Z,74.66
2022-11-18T06:34:54.853Z,75.20
2022-11-18T06:39:57.413Z,75.20
2022-11-18T06:45:00.421Z,75.83
2022-11-18T06:50:03.729Z,75.86
2022-11-18T06:55:08.175Z,75.96
2022-11-18T07:00:13.739Z,75.70
2022-11-18T07:05:17.397Z,75.70
2022-11-18T07:10:20.044Z,75.47
2022-11-18T07:15:22.591Z,75.52
2022-11-18T07:20:25.136Z,74.64
2022-11-18T07:25:27.680Z,74.70
2022-11-18T07:30:30.194Z,74.54
2022-11-18T07:35:32.893Z,74.46
2022-11-18T07:40:35.496Z,74.31
2022-11-18T07:45:38.035Z,74.31
2022-11-18T07:50:44.420Z,74.46
2022-11-18T07:55:49.676Z,73.88
2022-11-18T08:00:52.522Z,74.01
2022-11-18T08:05:59.716Z,73.19
2022-11-18T08:11:06.767Z,73.11
2022-11-18T08:16:20.046Z,73.21
2022-11-18T08:21:23.383Z,72.93
2022-11-18T08:26:26.545Z,72.56
2022-11-18T08:31:31.309Z,72.15
2022-11-18T08:36:36.391Z,72.09
2022-11-18T08:41:43.352Z,70.91
2022-11-18T08:46:46.096Z,71.03
2022-11-18T08:51:48.665Z,72.48
2022-11-18T08:56:51.279Z,74.91
2022-11-18T09:01:53.943Z,75.65
2022-11-18T09:06:56.651Z,76.09
2022-11-18T09:11:59.689Z,75.62
2022-11-18T09:17:02.463Z,75.37
2022-11-18T09:22:05.274Z,74.56
2022-11-18T09:27:13.620Z,74.25
2022-11-18T09:32:17.937Z,72.76
2022-11-18T09:37:20.533Z,72.19
2022-11-18T09:42:29.387Z,72.38
2022-11-18T09:47:34.823Z,73.82
2022-11-18T09:52:44.080Z,74.26
2022-11-18T09:57:51.924Z,73.97
2022-11-18T10:02:57.563Z,73.54
2022-11-18T10:08:05.236Z,72.67
2022-11-18T10:13:16.838Z,71.91
2022-11-18T10:24:13.148Z,71.01
2022-11-18T10:29:15.720Z,69.42
2022-11-18T10:34:20.372Z,69.60
2022-11-18T10:39:23.051Z,68.71
2022-11-18T10:44:30.086Z,68.34
2022-11-18T10:49:39.000Z,65.51
2022-11-18T10:54:42.318Z,63.99
2022-11-18T10:59:50.980Z,63.12
2022-11-18T11:04:54.084Z,62.85
2022-11-18T11:10:00.648Z,63.17
2022-11-18T11:15:06.396Z,63.43
2022-11-18T11:20:13.053Z,62.95
2022-11-18T11:25:18.857Z,61.50
2022-11-18T11:30:26.558Z,61.88
2022-11-18T11:35:32.828Z,62.68
2022-11-18T11:40:39.721Z,62.62
2022-11-18T11:45:57.505Z,62.21
2022-11-18T11:51:06.614Z,62.13
2022-11-18T11:56:12.081Z,62.17
2022-11-18T12:01:25.251Z,62.08
2022-11-18T12:06:28.131Z,62.44
2022-11-18T12:11:55.280Z,62.57
2022-11-18T12:17:11.907Z,63.39
2022-11-18T12:22:14.470Z,63.54
2022-11-18T12:27:22.833Z,63.39
2022-11-18T12:32:29.778Z,64.37
2022-11-18T12:37:32.296Z,63.91
2022-11-18T12:42:43.276Z,64.38
2022-11-18T12:47:46.027Z,64.40
2022-11-18T12:52:49.074Z,64.70
2022-11-18T12:57:52.206Z,65.35
2022-11-18T13:03:01.259Z,64.50
2022-11-18T13:08:13.059Z,64.24
2022-11-18T13:13:25.776Z,63.60
2022-11-18T13:18:28.518Z,64.59
2022-11-18T13:23:37.113Z,65.05
2022-11-18T13:28:52.598Z,65.11
2022-11-18T13:33:55.434Z,65.51
2022-11-18T13:39:00.698Z,65.34
2022-11-18T13:44:09.094Z,65.38
2022-11-18T13:49:19.977Z,64.78
2022-11-18T13:54:26.749Z,64.32
2022-11-18T13:59:29.427Z,63.38
2022-11-18T14:04:32.914Z,63.57
2022-11-18T14:09:35.466Z,63.73
2022-11-18T14:14:40.272Z,63.97
2022-11-18T14:19:43.682Z,64.52
2022-11-18T14:25:04.889Z,64.86
2022-11-18T14:30:17.999Z,65.41
2022-11-18T14:35:20.793Z,65.95
2022-11-18T14:40:25.726Z,66.36
2022-11-18T14:45:28.263Z,66.85
2022-11-18T14:50:30.827Z,67.49
2022-11-18T14:55:33.425Z,67.87
2022-11-18T15:00:35.997Z,68.07
2022-11-18T15:05:39.326Z,68.36
2022-11-18T15:10:41.869Z,68.76
2022-11-18T15:15:44.592Z,68.88
2022-11-18T15:20:47.120Z,68.95
2022-11-18T15:25:49.682Z,69.08
2022-11-18T15:30:52.392Z,69.33
2022-11-18T15:35:54.943Z,69.62
2022-11-18T15:40:57.554Z,69.73
2022-11-18T15:46:00.144Z,70.07
2022-11-18T15:51:05.313Z,70.34
2022-11-18T15:56:25.562Z,70.35
2022-11-18T16:01:32.699Z,70.54
2022-11-18T16:06:35.918Z,70.51
2022-11-18T16:11:41.750Z,70.57
2022-11-18T16:16:46.170Z,70.50
2022-11-18T16:21:53.173Z,70.52
2022-11-18T16:26:56.241Z,70.78
2022-11-18T16:31:58.902Z,70.62
2022-11-18T16:37:04.950Z,71.25
2022-11-18T16:42:08.921Z,71.56
2022-11-18T16:47:14.872Z,71.89
2022-11-18T16:52:18.007Z,72.29
2022-11-18T16:57:20.702Z,72.53
2022-11-18T17:02:23.984Z,72.82
2022-11-18T17:07:26.627Z,73.52
2022-11-18T17:12:29.202Z,74.47
2022-11-18T17:17:31.728Z,74.54
2022-11-18T17:22:34.302Z,74.75
2022-11-18T17:27:37.696Z,74.62
2022-11-18T17:32:40.246Z,74.90
2022-11-18T17:37:42.838Z,75.24
2022-11-18T17:42:45.366Z,75.83
2022-11-18T17:47:47.932Z,76.05
2022-11-18T17:52:52.859Z,76.20
2022-11-18T17:57:55.888Z,76.11
2022-11-18T18:02:59.658Z,75.90
2022-11-18T18:08:04.311Z,75.98
2022-11-18T18:13:09.787Z,76.05
2022-11-18T18:18:12.714Z,76.49
2022-11-18T18:23:15.243Z,76.62
2022-11-18T18:28:17.813Z,76.94
2022-11-18T18:33:20.376Z,77.31
2022-11-18T18:38:23.226Z,77.25
2022-11-18T18:43:25.738Z,77.21
2022-11-18T18:48:28.321Z,77.38
2022-11-18T18:53:32.184Z,77.36
2022-11-18T18:58:35.510Z,77.37
2022-11-18T19:03:39.061Z,77.49
2022-11-18T19:08:41.856Z,77.63
2022-11-18T19:13:44.378Z,77.67
2022-11-18T19:18:46.910Z,77.57
2022-11-18T19:23:50.494Z,77.57
2022-11-18T19:28:53.134Z,77.56
2022-11-18T19:33:55.722Z,77.52
2022-11-18T19:39:00.407Z,77.47
2022-11-18T19:44:04.171Z,77.43
2022-11-18T19:49:06.715Z,77.71
2022-11-18T19:54:09.282Z,77.80
2022-11-18T19:59:12.881Z,77.97
2022-11-18T20:04:15.455Z,78.25
2022-11-18T20:09:18.593Z,78.51
2022-11-18T20:14:21.327Z,78.86
2022-11-18T20:19:25.056Z,78.93
2022-11-18T20:24:27.636Z,79.28
2022-11-18T20:29:30.168Z,79.11
2022-11-18T20:34:34.866Z,79.20
2022-11-18T20:39:37.444Z,79.09
2022-11-18T20:44:39.964Z,79.16
2022-11-18T20:49:42.550Z,78.97
2022-11-18T20:54:45.618Z,78.98
2022-11-18T20:59:48.166Z,79.17
2022-11-18T21:04:50.740Z,79.06
2022-11-18T21:09:53.314Z,79.15
2022-11-18T21:14:55.881Z,79.35
2022-11-18T21:20:18.387Z,79.64
2022-11-18T21:25:21.183Z,80.05
2022-11-18T21:30:23.712Z,80.23
2022-11-18T21:35:26.289Z,80.75
2022-11-18T21:40:28.821Z,80.84
2022-11-18T21:45:31.367Z,81.06
2022-11-18T21:50:33.939Z,81.21
2022-11-18T21:55:36.534Z,81.09
2022-11-18T22:00:39.207Z,81.27
2022-11-18T22:05:41.764Z,81.47
2022-11-18T22:10:46.435Z,81.26
2022-11-18T22:15:49.019Z,81.14
2022-11-18T22:20:51.641Z,81.16
2022-11-18T22:25:58.935Z,81.08
2022-11-18T22:31:21.047Z,81.05
2022-11-18T22:36:25.602Z,80.95
2022-11-18T22:41:31.595Z,80.70
2022-11-18T22:46:35.363Z,80.73
2022-11-18T22:51:38.863Z,80.75
2022-11-18T22:56:41.935Z,80.60
2022-11-18T23:01:44.540Z,80.57
2022-11-18T23:06:48.541Z,80.25
2022-11-18T23:11:54.034Z,80.29
2022-11-18T23:16:56.592Z,80.05
2022-11-18T23:21:59.263Z,80.10
2022-11-18T23:27:01.869Z,80.24
2022-11-18T23:32:04.914Z,80.31
2022-11-18T23:37:07.452Z,80.19
2022-11-18T23:42:10.042Z,80.46
2022-11-18T23:47:13.779Z,80.49
2022-11-18T23:52:16.899Z,80.41
2022-11-18T23:57:19.578Z,80.65
